Time;durP1;ratioP1;P1;durP2;ratioP2;P2;SDS_P1;SDS_P2;PMS_P1;PMS_P2;Temp;Humidity;BMP_temperature;BMP_pressure;BME280_temperature;BME280_humidity;BME280_pressure;Samples;Min_cycle;Max_cycle;Signal;HPM_P1;HPM_P2
2023/12/11 00:03:06;;;;;;;26.60;13.20;;;;;;;4.47;100.00;99299.89;111916;1249;23591;-81
2023/12/11 00:05:52;;;;;;;23.70;12.10;;;;;;;4.44;100.00;99298.95;111791;1249;21957;-83
2023/12/11 00:08:44;;;;;;;33.70;15.90;;;;;;;4.43;100.00;99293.65;111936;1249;23021;-80
2023/12/11 00:11:48;;;;;;;23.50;13.20;;;;;;;4.44;100.00;99290.52;111993;1241;21980;-81
2023/12/11 00:15:09;;;;;;;31.50;13.50;;;;;;;4.45;100.00;99290.49;112184;1245;21957;-80
2023/12/11 00:17:58;;;;;;;26.40;13.70;;;;;;;4.45;100.00;99292.88;111904;1245;21956;-81
2023/12/11 00:20:41;;;;;;;30.30;17.50;;;;;;;4.48;100.00;99294.02;112385;1245;23726;-79
2023/12/11 00:23:19;;;;;;;39.00;21.80;;;;;;;4.46;100.00;99294.39;112129;1245;22014;-80
2023/12/11 00:26:31;;;;;;;;;;;;;;;4.45;100.00;99293.76;111721;1250;21950;-81
2023/12/11 00:29:14;;;;;;;53.60;23.20;;;;;;;4.34;100.00;99284.09;111704;1252;21997;-81
2023/12/11 00:32:15;;;;;;;30.80;15.60;;;;;;;4.32;100.00;99278.98;111679;1251;21981;-81
2023/12/11 00:34:50;;;;;;;33.80;18.70;;;;;;;4.33;100.00;99280.67;111516;1251;21974;-81
2023/12/11 00:37:50;;;;;;;35.10;16.70;;;;;;;4.35;100.00;99275.81;112048;1249;23038;-80
2023/12/11 00:40:30;;;;;;;31.80;16.60;;;;;;;4.35;100.00;99270.98;112058;1248;21971;-80
2023/12/11 00:43:49;;;;;;;34.30;16.30;;;;;;;4.33;100.00;99265.19;112083;1249;23774;-81
2023/12/11 00:46:25;;;;;;;33.80;17.20;;;;;;;4.32;100.00;99264.52;111974;1249;21977;-81
2023/12/11 00:49:08;;;;;;;34.40;18.10;;;;;;;4.31;100.00;99262.98;112062;1244;22122;-77
2023/12/11 00:52:02;;;;;;;35.70;15.60;;;;;;;4.29;100.00;99262.53;112845;1239;21958;-79
2023/12/11 00:54:45;;;;;;;26.00;15.00;;;;;;;4.24;100.00;99270.77;113425;1233;21999;-80
2023/12/11 00:57:17;;;;;;;28.10;13.50;;;;;;;4.21;100.00;99279.64;113335;1233;21993;-80
2023/12/11 00:59:51;;;;;;;30.10;13.70;;;;;;;4.21;100.00;99278.94;113486;1233;23627;-81
2023/12/11 01:02:29;;;;;;;29.90;12.60;;;;;;;4.23;100.00;99270.97;113746;1231;23762;-80
2023/12/11 01:05:02;;;;;;;23.50;12.00;;;;;;;4.24;100.00;99274.05;113614;1233;22173;-81
2023/12/11 01:07:42;;;;;;;28.10;13.20;;;;;;;4.24;100.00;99271.45;113594;1233;21955;-81
2023/12/11 01:10:57;;;;;;;28.90;13.80;;;;;;;4.25;100.00;99267.13;113643;1233;23040;-80
2023/12/11 01:14:45;;;;;;;28.00;13.30;;;;;;;4.22;100.00;99264.63;113769;1233;21964;-81
2023/12/11 01:21:30;;;;;;;27.20;13.10;;;;;;;4.19;100.00;99260.60;111542;1253;22456;-81
2023/12/11 01:24:27;;;;;;;23.60;13.50;;;;;;;4.18;100.00;99259.05;111527;1253;21988;-79
2023/12/11 01:27:09;;;;;;;30.40;14.60;;;;;;;4.20;100.00;99256.77;111505;1252;23024;-81
2023/12/11 01:29:49;;;;;;;22.10;13.00;;;;;;;4.19;100.00;99255.41;111153;1255;22490;-81
2023/12/11 01:32:54;;;;;;;22.30;10.00;;;;;;;4.16;100.00;99252.39;111353;1255;21986;-82
2023/12/11 01:35:33;;;;;;;;;;;;;;;4.12;100.00;99245.11;111740;1249;21940;-80
2023/12/11 01:38:34;;;;;;;26.40;11.00;;;;;;;4.02;100.00;99235.95;112062;1245;21959;-81
2023/12/11 01:41:46;;;;;;;28.80;12.30;;;;;;;4.05;100.00;99235.84;112398;1245;21995;-80
2023/12/11 01:44:35;;;;;;;21.20;11.30;;;;;;;4.11;100.00;99232.73;112353;1245;21970;-80
2023/12/11 01:47:21;;;;;;;21.40;10.90;;;;;;;4.15;100.00;99228.16;112251;1241;22231;-79
2023/12/11 01:50:00;;;;;;;24.00;12.10;;;;;;;4.17;100.00;99229.98;112742;1241;21956;-80
2023/12/11 01:53:16;;;;;;;32.20;11.30;;;;;;;4.19;100.00;99233.90;113132;1241;23037;-81
2023/12/11 01:56:03;;;;;;;29.50;12.70;;;;;;;4.20;100.00;99227.85;112873;1241;22434;-80
2023/12/11 01:58:43;;;;;;;24.10;12.50;;;;;;;4.21;100.00;99220.07;112995;1233;22836;-81
2023/12/11 02:01:26;;;;;;;29.30;13.10;;;;;;;4.20;100.00;99213.70;113676;1233;21999;-80
2023/12/11 02:04:05;;;;;;;30.60;13.50;;;;;;;4.20;100.00;99205.80;113325;1234;21936;-79
2023/12/11 02:07:08;;;;;;;32.30;12.80;;;;;;;4.17;100.00;99199.35;113606;1234;21945;-80
2023/12/11 02:10:09;;;;;;;23.40;10.40;;;;;;;4.16;100.00;99195.94;113538;1234;23488;-80
2023/12/11 02:12:58;;;;;;;25.40;12.80;;;;;;;4.18;100.00;99188.30;113537;1233;23693;-79
2023/12/11 02:15:54;;;;;;;26.40;12.60;;;;;;;4.19;100.00;99182.06;113676;1233;21987;-79
2023/12/11 02:18:26;;;;;;;22.90;11.50;;;;;;;4.21;100.00;99172.52;113634;1231;21934;-80
2023/12/11 02:21:16;;;;;;;28.60;12.20;;;;;;;4.25;100.00;99168.81;112773;1239;23625;-80
2023/12/11 02:24:09;;;;;;;28.50;13.00;;;;;;;4.27;100.00;99162.52;112862;1239;23059;-79
2023/12/11 02:26:43;;;;;;;28.20;13.30;;;;;;;4.27;100.00;99158.55;113074;1239;21942;-82
2023/12/11 02:29:17;;;;;;;21.90;11.40;;;;;;;4.27;100.00;99156.67;112763;1239;22944;-79
2023/12/11 02:31:51;;;;;;;21.20;10.70;;;;;;;4.28;100.00;99157.66;112911;1239;21969;-80
2023/12/11 02:34:36;;;;;;;19.50;9.70;;;;;;;4.27;100.00;99150.83;112789;1239;22522;-79
2023/12/11 02:37:14;;;;;;;18.00;9.20;;;;;;;4.25;100.00;99147.60;111917;1246;22009;-80
2023/12/11 02:39:45;;;;;;;21.30;9.70;;;;;;;4.24;100.00;99142.30;112368;1241;23044;-78
2023/12/11 02:42:19;;;;;;;19.00;9.10;;;;;;;4.22;100.00;99143.23;112123;1247;22209;-78
2023/12/11 02:45:00;;;;;;;20.00;8.90;;;;;;;4.20;100.00;99142.26;112099;1247;21965;-78
2023/12/11 02:47:31;;;;;;;22.70;10.10;;;;;;;4.18;100.00;99139.55;111876;1247;21976;-80
2023/12/11 02:50:05;;;;;;;19.80;9.70;;;;;;;4.14;100.00;99129.01;112120;1246;22057;-79
2023/12/11 02:52:50;;;;;;;20.50;10.30;;;;;;;4.15;100.00;99114.67;111944;1247;21998;-81
2023/12/11 02:59:18;;;;;;;18.60;10.10;;;;;;;4.05;100.00;99092.27;112972;1239;23681;-79
2023/12/11 03:02:32;;;;;;;20.30;9.30;;;;;;;4.00;100.00;99098.98;112782;1241;21947;-80
2023/12/11 03:05:58;;;;;;;14.80;8.20;;;;;;;3.96;100.00;99105.28;112188;1247;21967;-81
2023/12/11 03:08:47;;;;;;;12.00;8.20;;;;;;;3.94;100.00;99113.10;112144;1247;24446;-82
2023/12/11 03:11:36;;;;;;;22.60;9.00;;;;;;;3.90;100.00;99123.37;111535;1251;22639;-80
2023/12/11 03:14:38;;;;;;;19.40;8.50;;;;;;;3.87;100.00;99115.86;111540;1251;22448;-80
2023/12/11 03:17:55;;;;;;;20.60;8.10;;;;;;;3.86;100.00;99112.98;111181;1257;24413;-81
2023/12/11 03:20:38;;;;;;;19.80;11.00;;;;;;;3.89;100.00;99110.66;110465;1263;22517;-80
2023/12/11 03:23:22;;;;;;;23.20;10.60;;;;;;;3.92;100.00;99109.38;110284;1263;22417;-79
2023/12/11 03:26:29;;;;;;;20.20;9.50;;;;;;;3.83;100.00;99104.98;110484;1262;21960;-77
2023/12/11 03:29:18;;;;;;;22.50;8.80;;;;;;;3.85;100.00;99110.94;110676;1261;23047;-80
2023/12/11 03:32:25;;;;;;;;;;;;;;;;;;;;;
2023/12/11 03:35:04;;;;;;;16.90;9.70;;;;;;;3.86;100.00;99100.61;110661;1257;21971;-80
2023/12/11 03:37:54;;;;;;;20.20;11.20;;;;;;;3.85;100.00;99101.83;111240;1247;21976;-80
2023/12/11 03:40:51;;;;;;;22.70;14.30;;;;;;;3.85;100.00;99095.63;112307;1238;23638;-77
2023/12/11 03:43:59;;;;;;;24.20;15.50;;;;;;;3.86;100.00;99086.15;111926;1245;22391;-80
2023/12/11 03:47:11;;;;;;;23.10;13.60;;;;;;;3.82;100.00;99083.69;112304;1245;21979;-79
2023/12/11 03:49:59;;;;;;;21.00;12.60;;;;;;;3.79;100.00;99081.17;111887;1245;22446;-79
2023/12/11 03:53:15;;;;;;;;;;;;;;;;;;;;;
2023/12/11 03:56:23;;;;;;;22.60;11.60;;;;;;;3.76;100.00;99081.27;112235;1245;22096;-76
2023/12/11 04:05:45;;;;;;;21.30;10.80;;;;;;;3.73;100.00;99061.08;111535;1254;22963;-82
2023/12/11 04:09:13;;;;;;;22.20;11.80;;;;;;;3.75;100.00;99051.20;111299;1254;22886;-79
2023/12/11 04:12:30;;;;;;;20.60;11.30;;;;;;;3.76;100.00;99038.42;111470;1254;21971;-81
2023/12/11 04:15:42;;;;;;;21.30;11.40;;;;;;;3.73;100.00;99030.27;111854;1249;23629;-81
2023/12/11 04:18:46;;;;;;;27.10;17.00;;;;;;;3.72;100.00;99024.10;111866;1248;21979;-79
2023/12/11 04:22:07;;;;;;;25.30;11.20;;;;;;;3.73;100.00;99022.67;111785;1249;21998;-78
2023/12/11 04:25:27;;;;;;;40.20;28.20;;;;;;;3.62;100.00;98999.98;111896;1249;21982;-80
2023/12/11 04:28:11;;;;;;;16.90;10.60;;;;;;;3.72;100.00;99016.70;111683;1247;23558;-78
2023/12/11 04:31:05;;;;;;;21.80;11.50;;;;;;;3.72;100.00;99007.76;111572;1249;22802;-76
2023/12/11 04:34:05;;;;;;;19.80;10.90;;;;;;;3.73;100.00;99005.66;111387;1251;21972;-79
2023/12/11 04:37:01;;;;;;;19.40;11.60;;;;;;;3.75;100.00;99007.66;111824;1251;22007;-81
2023/12/11 04:40:19;;;;;;;22.80;12.40;;;;;;;3.71;100.00;99004.68;111305;1256;21981;-79
2023/12/11 04:43:25;;;;;;;24.10;13.70;;;;;;;3.67;100.00;98999.48;111560;1251;21991;-80
2023/12/11 04:47:16;;;;;;;19.90;12.10;;;;;;;3.68;100.00;98993.77;111340;1255;22973;-81
2023/12/11 04:50:45;;;;;;;15.10;11.60;;;;;;;3.67;100.00;98987.42;110954;1259;22004;-79
2023/12/11 04:55:03;;;;;;;;;;;;;;;;;;;;;
2023/12/11 04:58:45;;;;;;;18.80;12.70;;;;;;;3.66;100.00;98981.45;110606;1263;21981;-80
2023/12/11 05:01:29;;;;;;;22.80;13.30;;;;;;;3.67;100.00;98974.71;110532;1263;22318;-81
2023/12/11 05:04:15;;;;;;;22.80;13.00;;;;;;;3.68;100.00;98970.90;110386;1263;21952;-81
2023/12/11 05:11:20;;;;;;;22.00;15.00;;;;;;;3.65;100.00;98962.20;110405;1266;23753;-80
2023/12/11 05:14:41;;;;;;;23.00;15.60;;;;;;;3.52;100.00;98933.73;110786;1263;22018;-82
2023/12/11 05:17:33;;;;;;;18.80;13.70;;;;;;;3.65;100.00;98948.62;111065;1259;21987;-82
2023/12/11 05:20:34;;;;;;;21.20;13.00;;;;;;;3.65;100.00;98944.48;111024;1258;22420;-81
2023/12/11 05:23:19;;;;;;;16.50;12.50;;;;;;;3.67;100.00;98941.14;110790;1256;22045;-81
2023/12/11 05:25:58;;;;;;;20.20;13.40;;;;;;;3.71;100.00;98941.88;111466;1244;22492;-80
2023/12/11 05:28:38;;;;;;;21.30;12.70;;;;;;;3.75;100.00;98941.44;112438;1244;22978;-78
2023/12/11 05:34:35;;;;;;;20.50;12.30;;;;;;;3.76;100.00;98936.75;112647;1241;21968;-80
2023/12/11 05:37:24;;;;;;;22.00;12.20;;;;;;;3.80;100.00;98937.13;112392;1240;21952;-81
2023/12/11 05:40:13;;;;;;;21.60;14.90;;;;;;;3.81;100.00;98933.66;112695;1241;23610;-79
2023/12/11 05:43:04;;;;;;;20.40;13.70;;;;;;;3.82;100.00;98930.52;113308;1233;22003;-80
2023/12/11 05:45:35;;;;;;;20.00;12.00;;;;;;;3.83;100.00;98933.05;113395;1234;22001;-79
2023/12/11 05:48:09;;;;;;;25.90;13.20;;;;;;;3.85;100.00;98932.14;113382;1233;24308;-80
2023/12/11 05:50:41;;;;;;;19.80;11.50;;;;;;;3.86;100.00;98931.75;113614;1233;22036;-79
2023/12/11 05:53:20;;;;;;;20.00;11.60;;;;;;;3.87;100.00;98929.66;110609;1233;3631161;-81
2023/12/11 05:55:53;;;;;;;24.90;12.80;;;;;;;3.87;100.00;98928.81;113562;1233;23013;-79
2023/12/11 05:58:29;;;;;;;18.50;11.20;;;;;;;3.88;100.00;98926.71;113552;1233;22843;-80
2023/12/11 06:01:04;;;;;;;18.50;10.90;;;;;;;3.88;100.00;98924.29;113416;1233;21973;-81
2023/12/11 06:04:09;;;;;;;19.80;11.90;;;;;;;3.89;100.00;98920.83;112819;1239;22161;-80
2023/12/11 06:07:00;;;;;;;17.90;11.20;;;;;;;3.88;100.00;98917.07;113195;1238;21942;-81
2023/12/11 06:09:55;;;;;;;17.30;10.10;;;;;;;3.89;100.00;98914.77;112578;1242;23686;-82
2023/12/11 06:12:32;;;;;;;17.40;9.80;;;;;;;3.93;100.00;98916.05;112578;1242;23035;-81
2023/12/11 06:15:17;;;;;;;21.90;10.70;;;;;;;3.96;100.00;98918.88;112533;1241;23060;-79
2023/12/11 06:17:57;;;;;;;20.00;11.80;;;;;;;4.00;100.00;98915.98;112605;1242;21984;-79
2023/12/11 06:20:44;;;;;;;25.50;14.40;;;;;;;4.04;100.00;98913.44;113020;1239;22584;-80
2023/12/11 06:23:30;;;;;;;29.20;13.40;;;;;;;4.09;100.00;98906.02;112385;1243;21999;-80
2023/12/11 06:26:17;;;;;;;;;;;;;;;;;;;;;
2023/12/11 06:28:50;;;;;;;40.80;16.50;;;;;;;4.20;100.00;98904.79;112996;1238;23670;-81
2023/12/11 06:31:26;;;;;;;29.40;14.30;;;;;;;4.23;100.00;98900.20;113346;1238;21944;-80
2023/12/11 06:33:59;;;;;;;32.10;14.80;;;;;;;4.26;100.00;98897.36;113286;1238;23678;-81
2023/12/11 06:36:31;;;;;;;32.70;15.80;;;;;;;4.28;100.00;98897.44;112777;1243;22422;-81
2023/12/11 06:39:01;;;;;;;28.40;16.20;;;;;;;4.29;100.00;98893.61;112139;1249;23016;-81
2023/12/11 06:41:38;;;;;;;26.00;14.20;;;;;;;4.32;100.00;98894.55;112032;1246;21993;-80
2023/12/11 06:44:09;;;;;;;28.10;13.10;;;;;;;4.35;100.00;98896.69;112276;1246;21974;-80
2023/12/11 06:50:47;;;;;;;;;;;;;;;;;;;;;
2023/12/11 06:54:07;;;;;;;14.60;8.20;;;;;;;4.37;100.00;98880.27;111473;1245;23694;-77
2023/12/11 06:57:58;;;;;;;14.60;7.50;;;;;;;4.42;100.00;98879.89;111468;1249;21955;-78
2023/12/11 07:00:59;;;;;;;14.10;6.80;;;;;;;4.49;100.00;98883.77;111001;1254;21992;-75
2023/12/11 07:08:47;;;;;;;10.50;6.10;;;;;;;4.59;100.00;98885.16;110669;1259;21963;-78
2023/12/11 07:12:45;;;;;;;;;;;;;;;;;;;;;
2023/12/11 07:16:47;;;;;;;15.00;8.50;;;;;;;4.62;100.00;98884.16;110613;1259;22739;-78
2023/12/11 07:19:45;;;;;;;11.10;7.60;;;;;;;4.70;100.00;98891.63;110629;1259;23707;-77
2023/12/11 07:26:53;;;;;;;15.40;8.30;;;;;;;4.74;100.00;98890.27;110822;1258;23645;-78
2023/12/11 07:30:57;;;;;;;14.70;8.90;;;;;;;4.79;100.00;98893.04;110610;1261;21975;-78
2023/12/11 07:34:54;;;;;;;15.20;7.50;;;;;;;4.88;100.00;98890.63;110360;1264;22089;-78
2023/12/11 07:37:59;;;;;;;11.60;7.20;;;;;;;4.96;100.00;98888.42;110412;1259;23053;-82
2023/12/11 07:40:31;;;;;;;14.60;9.60;;;;;;;5.03;100.00;98903.48;111183;1256;22850;-84
2023/12/11 07:43:23;;;;;;;32.90;12.40;;;;;;;5.10;100.00;98902.36;111669;1253;22433;-83
2023/12/11 07:45:55;;;;;;;15.80;10.20;;;;;;;5.12;100.00;98899.55;111659;1253;21951;-83
2023/12/11 07:48:24;;;;;;;18.40;13.00;;;;;;;5.15;100.00;98899.25;111473;1253;22430;-84
2023/12/11 07:51:22;;;;;;;18.90;14.10;;;;;;;5.18;100.00;98902.05;111519;1253;22420;-83
2023/12/11 07:54:01;;;;;;;15.60;11.40;;;;;;;5.20;100.00;98903.20;111537;1253;22820;-83
2023/12/11 07:56:35;;;;;;;19.40;11.80;;;;;;;5.16;100.00;98884.36;112036;1244;22092;-83
2023/12/11 07:59:07;;;;;;;20.60;12.70;;;;;;;5.25;100.00;98906.77;112180;1247;24313;-81
2023/12/11 08:01:45;;;;;;;15.30;9.60;;;;;;;5.29;100.00;98911.79;111958;1248;21981;-85
2023/12/11 08:04:23;;;;;;;25.80;9.40;;;;;;;5.32;100.00;98906.84;112025;1244;23787;-83
2023/12/11 08:07:06;;;;;;;19.40;10.50;;;;;;;5.31;100.00;98906.89;112633;1242;21958;-83
2023/12/11 08:09:39;;;;;;;23.70;13.40;;;;;;;5.29;100.00;98907.48;112769;1242;23597;-85
2023/12/11 08:12:25;;;;;;;30.80;19.40;;;;;;;5.33;100.00;98910.13;112722;1243;21958;-84
2023/12/11 08:14:57;;;;;;;34.80;16.60;;;;;;;5.39;100.00;98907.80;112849;1242;21978;-85
2023/12/11 08:17:31;;;;;;;19.90;13.10;;;;;;;5.46;100.00;98905.80;113059;1239;21947;-82
2023/12/11 08:20:08;;;;;;;21.60;15.40;;;;;;;5.50;100.00;98904.23;113151;1238;21975;-84
2023/12/11 08:22:48;;;;;;;19.40;13.40;;;;;;;5.55;100.00;98905.98;112614;1242;21951;-82
2023/12/11 08:25:21;;;;;;;22.90;11.30;;;;;;;5.60;100.00;98909.19;112606;1237;21956;-84
2023/12/11 08:28:00;;;;;;;40.70;24.40;;;;;;;5.65;100.00;98903.30;112863;1239;21935;-80
2023/12/11 08:30:37;;;;;;;19.40;10.50;;;;;;;5.71;100.00;98899.45;112156;1244;21953;-83
2023/12/11 08:33:14;;;;;;;21.70;11.50;;;;;;;5.73;100.00;98904.88;112764;1244;22847;-85
2023/12/11 08:35:45;;;;;;;18.30;10.90;;;;;;;5.77;100.00;98911.61;112352;1244;23667;-82
2023/12/11 08:38:35;;;;;;;12.50;9.20;;;;;;;5.80;100.00;98910.09;112587;1244;23159;-82
2023/12/11 08:41:30;;;;;;;18.90;13.80;;;;;;;5.83;100.00;98913.95;112909;1239;21911;-82
2023/12/11 08:44:11;;;;;;;20.00;12.70;;;;;;;5.89;100.00;98906.48;112853;1239;21963;-82
2023/12/11 08:46:56;;;;;;;16.10;7.60;;;;;;;5.94;100.00;98922.85;113137;1239;22002;-82
2023/12/11 08:49:42;;;;;;;9.90;6.30;;;;;;;6.00;100.00;98921.90;113253;1234;23561;-81
2023/12/11 08:52:21;;;;;;;11.70;8.10;;;;;;;6.09;100.00;98917.56;113614;1233;21935;-82
2023/12/11 08:54:52;;;;;;;19.20;12.30;;;;;;;6.20;100.00;98916.40;113813;1227;23027;-84
2023/12/11 08:57:30;;;;;;;12.60;7.80;;;;;;;6.34;100.00;98912.54;112924;1239;21975;-81
2023/12/11 09:00:31;;;;;;;11.90;7.80;;;;;;;6.46;100.00;98924.98;113056;1238;21969;-84
2023/12/11 09:04:11;;;;;;;11.70;6.20;;;;;;;6.48;100.00;98921.95;112044;1247;22004;-82
2023/12/11 09:06:55;;;;;;;11.10;6.60;;;;;;;6.53;100.00;98919.98;111858;1252;21966;-85
2023/12/11 09:09:28;;;;;;;16.10;10.30;;;;;;;6.57;100.00;98918.77;111521;1252;21949;-80
2023/12/11 09:12:41;;;;;;;13.70;10.30;;;;;;;6.63;100.00;98919.41;111129;1256;21970;-86
2023/12/11 09:15:48;;;;;;;15.50;8.20;;;;;;;6.63;100.00;98923.35;110548;1263;21968;-78
2023/12/11 09:18:29;;;;;;;13.50;8.50;;;;;;;6.66;100.00;98922.02;110442;1263;21986;-77
2023/12/11 09:21:09;;;;;;;15.60;9.70;;;;;;;6.67;100.00;98921.64;110417;1261;21957;-77
2023/12/11 09:24:04;;;;;;;14.10;8.40;;;;;;;6.67;100.00;98922.34;110607;1261;23042;-78
2023/12/11 09:27:45;;;;;;;13.30;9.20;;;;;;;6.62;100.00;98919.80;110904;1257;23859;-78
2023/12/11 09:30:28;;;;;;;16.00;9.90;;;;;;;6.59;100.00;98926.64;110470;1260;23659;-80
2023/12/11 09:33:29;;;;;;;17.40;9.70;;;;;;;6.59;100.00;98926.66;110614;1260;23037;-78
2023/12/11 09:36:10;;;;;;;21.00;13.60;;;;;;;6.61;100.00;98922.95;110629;1260;21994;-81
2023/12/11 09:38:49;;;;;;;16.10;12.40;;;;;;;6.67;100.00;98916.27;110434;1258;22020;-80
2023/12/11 09:41:36;;;;;;;18.60;8.90;;;;;;;6.76;100.00;98921.23;110738;1257;23701;-80
2023/12/11 09:44:21;;;;;;;16.20;9.90;;;;;;;6.79;100.00;98920.58;110987;1257;21964;-78
2023/12/11 09:47:31;;;;;;;20.70;15.00;;;;;;;6.80;100.00;98917.41;110657;1262;21993;-79
2023/12/11 09:50:43;;;;;;;18.30;8.10;;;;;;;6.85;100.00;98918.95;110633;1261;22025;-79
2023/12/11 09:54:09;;;;;;;17.40;10.10;;;;;;;6.91;100.00;98924.04;111640;1250;23591;-78
2023/12/11 09:57:29;;;;;;;17.50;10.60;;;;;;;6.91;100.00;98918.81;111545;1251;21976;-79
2023/12/11 10:01:04;;;;;;;16.10;8.30;;;;;;;6.93;100.00;98912.48;111647;1241;22081;-77
2023/12/11 10:03:57;;;;;;;18.60;10.80;;;;;;;6.93;100.00;98917.18;113174;1240;21944;-82
2023/12/11 10:06:52;;;;;;;17.60;12.80;;;;;;;6.93;100.00;98914.41;113629;1233;22068;-78
2023/12/11 10:10:05;;;;;;;;;;;;;;;;;;;;;
2023/12/11 10:12:52;;;;;;;22.30;16.40;;;;;;;7.00;100.00;98899.72;113422;1233;22400;-81
2023/12/11 10:21:02;;;;;;;;;;;;;;;;;;;;;
2023/12/11 10:24:33;;;;;;;22.60;15.60;;;;;;;7.15;100.00;98878.48;112359;1244;22039;-78
2023/12/11 10:27:44;;;;;;;;;;;;;;;;;;;;;
2023/12/11 10:31:15;;;;;;;;;;;;;;;;;;;;;
2023/12/11 10:34:56;;;;;;;23.50;14.90;;;;;;;7.29;100.00;98872.27;111244;1255;23749;-79
2023/12/11 10:38:31;;;;;;;21.20;12.30;;;;;;;7.35;100.00;98871.27;111165;1255;21969;-79
2023/12/11 10:41:50;;;;;;;20.00;13.90;;;;;;;7.36;100.00;98857.55;111244;1255;23741;-79
2023/12/11 10:45:50;;;;;;;23.10;15.00;;;;;;;7.57;100.00;98877.14;111480;1252;23690;-79
2023/12/11 10:52:12;;;;;;;23.30;14.10;;;;;;;7.69;100.00;98867.91;111415;1252;21985;-78
2023/12/11 10:55:14;;;;;;;20.10;12.10;;;;;;;7.76;100.00;98870.48;111727;1252;22309;-81
2023/12/11 10:58:01;;;;;;;20.10;11.20;;;;;;;7.80;100.00;98874.77;112143;1241;22962;-79
2023/12/11 11:01:32;;;;;;;16.60;10.00;;;;;;;7.83;100.00;98862.35;112753;1241;21972;-77
2023/12/11 11:05:07;;;;;;;17.10;10.00;;;;;;;7.87;100.00;98863.70;112481;1246;21965;-78
2023/12/11 11:08:37;;;;;;;16.80;10.50;;;;;;;8.01;100.00;98844.63;111543;1252;21964;-79
2023/12/11 11:11:37;;;;;;;16.80;10.30;;;;;;;8.42;100.00;98840.61;112130;1251;22447;-80
2023/12/11 11:14:52;;;;;;;16.30;11.10;;;;;;;8.67;100.00;98834.81;111652;1256;21989;-79
2023/12/11 11:18:11;;;;;;;18.80;12.00;;;;;;;8.75;100.00;98841.11;111393;1256;21989;-81
2023/12/11 11:21:31;;;;;;;23.90;13.70;;;;;;;8.77;100.00;98839.62;111257;1256;22014;-79
2023/12/11 11:24:46;;;;;;;15.80;12.60;;;;;;;8.86;100.00;98830.66;110777;1258;23600;-80
2023/12/11 11:28:09;;;;;;;21.60;16.70;;;;;;;8.99;100.00;98831.84;111118;1254;21999;-77
2023/12/11 11:31:18;;;;;;;23.10;13.70;;;;;;;8.97;100.00;98830.02;111180;1253;22894;-76
2023/12/11 11:35:17;;;;;;;22.70;14.10;;;;;;;8.96;100.00;98829.90;111186;1254;21963;-79
2023/12/11 11:38:58;;;;;;;19.80;12.70;;;;;;;8.69;100.00;98813.54;110778;1259;22515;-81
2023/12/11 11:41:36;;;;;;;24.70;13.30;;;;;;;8.73;100.00;98821.63;110786;1260;23738;-79
2023/12/11 11:44:13;;;;;;;33.00;17.30;;;;;;;8.72;100.00;98820.67;110826;1256;21975;-77
2023/12/11 11:47:41;;;;;;;26.60;16.40;;;;;;;8.72;100.00;98819.23;111078;1255;24819;-78
2023/12/11 11:50:32;;;;;;;24.70;17.50;;;;;;;8.73;100.00;98819.56;110601;1260;23117;-80
2023/12/11 11:54:13;;;;;;;33.70;18.20;;;;;;;8.71;100.00;98821.58;110563;1253;23646;-72
2023/12/11 11:57:35;;;;;;;27.10;14.30;;;;;;;8.70;100.00;98820.07;110086;1265;22061;-77
2023/12/11 12:00:16;;;;;;;23.60;16.90;;;;;;;8.72;100.00;98817.36;110157;1257;22027;-77
2023/12/11 12:03:04;;;;;;;47.90;32.60;;;;;;;8.78;100.00;98818.05;110724;1257;23642;-76
2023/12/11 12:05:55;;;;;;;26.30;14.90;;;;;;;8.80;100.00;98819.17;110425;1261;21984;-77
2023/12/11 12:08:54;;;;;;;44.00;23.90;;;;;;;8.81;100.00;98815.11;110674;1258;21978;-76
2023/12/11 12:11:42;;;;;;;37.60;22.20;;;;;;;8.83;100.00;98807.71;110978;1254;21970;-77
2023/12/11 12:14:25;;;;;;;32.90;19.10;;;;;;;8.87;100.00;98807.52;111734;1246;23021;-86
2023/12/11 12:18:12;;;;;;;28.00;19.80;;;;;;;8.86;100.00;98806.86;112254;1246;21979;-80
2023/12/11 12:25:39;;;;;;;33.20;19.60;;;;;;;8.75;100.00;98797.09;111653;1252;21970;-79
2023/12/11 12:28:45;;;;;;;38.60;21.20;;;;;;;8.82;100.00;98803.80;111942;1245;22638;-82
2023/12/11 12:32:30;;;;;;;35.60;23.00;;;;;;;8.82;100.00;98805.01;112030;1247;21986;-80
2023/12/11 12:36:12;;;;;;;39.20;24.10;;;;;;;8.78;100.00;98805.39;111382;1257;22010;-81
2023/12/11 12:39:01;;;;;;;33.80;22.90;;;;;;;8.82;100.00;98799.99;110149;1267;22013;-78
2023/12/11 12:45:34;;;;;;;45.60;25.30;;;;;;;8.74;100.00;98792.63;109186;1273;24369;-78
2023/12/11 12:48:09;;;;;;;49.60;33.20;;;;;;;8.75;100.00;98795.83;109244;1269;23627;-78
2023/12/11 12:50:37;;;;;;;37.20;25.90;;;;;;;8.79;100.00;98791.46;109385;1273;22158;-79
2023/12/11 12:53:15;;;;;;;29.80;17.10;;;;;;;8.84;100.00;98790.35;109494;1270;22007;-79
2023/12/11 12:55:45;;;;;;;40.00;25.10;;;;;;;8.88;100.00;98789.95;109724;1266;21995;-81
2023/12/11 12:58:24;;;;;;;33.50;25.70;;;;;;;8.87;100.00;98788.59;110482;1264;22614;-85
2023/12/11 13:00:58;;;;;;;36.80;25.40;;;;;;;8.83;100.00;98788.12;110455;1260;22017;-80
2023/12/11 13:04:02;;;;;;;31.10;27.70;;;;;;;8.80;100.00;98788.46;111475;1255;21978;-79
2023/12/11 13:06:48;;;;;;;;;;;;;;;;;;;;;
2023/12/11 13:09:34;;;;;;;31.70;24.00;;;;;;;8.83;100.00;98798.17;111116;1254;22736;-81
2023/12/11 13:12:08;;;;;;;28.90;22.20;;;;;;;8.83;100.00;98797.66;111186;1251;21974;-80
2023/12/11 13:14:49;;;;;;;24.60;18.30;;;;;;;8.82;100.00;98799.31;111059;1257;21987;-80
2023/12/11 13:17:38;;;;;;;23.60;16.70;;;;;;;8.80;100.00;98797.64;110989;1259;23737;-79
2023/12/11 13:20:29;;;;;;;26.60;18.60;;;;;;;8.79;100.00;98799.64;111124;1259;22283;-79
2023/12/11 13:23:13;;;;;;;25.50;16.70;;;;;;;8.79;100.00;98801.36;111467;1254;22823;-79
2023/12/11 13:25:48;;;;;;;25.70;13.30;;;;;;;8.80;100.00;98798.55;111469;1254;23750;-80
2023/12/11 13:28:38;;;;;;;28.40;15.10;;;;;;;8.79;100.00;98802.91;111162;1254;21978;-78
2023/12/11 13:31:10;;;;;;;20.90;13.40;;;;;;;8.79;100.00;98806.54;111571;1249;22210;-80
2023/12/11 13:33:54;;;;;;;31.20;16.50;;;;;;;8.81;100.00;98805.95;112516;1239;23021;-83
2023/12/11 13:36:26;;;;;;;32.00;17.40;;;;;;;8.83;100.00;98801.48;113293;1234;21966;-84
2023/12/11 13:38:58;;;;;;;26.70;16.50;;;;;;;8.85;100.00;98799.48;112996;1240;22008;-84
2023/12/11 13:41:27;;;;;;;26.00;18.10;;;;;;;8.86;100.00;98794.20;112509;1244;21984;-86
2023/12/11 13:44:07;;;;;;;20.10;12.70;;;;;;;8.85;100.00;98789.63;112324;1244;21963;-83
2023/12/11 13:46:39;;;;;;;17.30;10.70;;;;;;;8.78;100.00;98791.03;112637;1244;22834;-85
2023/12/11 13:49:23;;;;;;;19.20;13.10;;;;;;;8.72;100.00;98792.03;112612;1244;21975;-84
2023/12/11 13:51:57;;;;;;;28.20;15.30;;;;;;;8.67;100.00;98789.73;112475;1239;23021;-82
2023/12/11 13:54:33;;;;;;;30.00;18.60;;;;;;;8.65;100.00;98794.17;112353;1244;21950;-84
2023/12/11 13:57:10;;;;;;;28.50;21.40;;;;;;;8.60;100.00;98794.06;112351;1244;21945;-83
2023/12/11 13:59:49;;;;;;;25.20;16.00;;;;;;;8.52;100.00;98789.33;112780;1241;21944;-84
2023/12/11 14:02:20;;;;;;;27.90;19.20;;;;;;;8.46;100.00;98791.69;113014;1232;23050;-82
2023/12/11 14:05:25;;;;;;;31.60;22.20;;;;;;;8.41;100.00;98794.92;113800;1233;23001;-84
2023/12/11 14:08:06;;;;;;;25.40;19.90;;;;;;;8.35;100.00;98794.85;113498;1233;21944;-84
2023/12/11 14:10:35;;;;;;;36.60;22.40;;;;;;;8.34;100.00;98797.19;113637;1233;21976;-83
2023/12/11 14:13:14;;;;;;;26.70;17.60;;;;;;;8.36;100.00;98801.40;113736;1233;23731;-80
2023/12/11 14:15:57;;;;;;;25.80;16.40;;;;;;;8.36;100.00;98806.58;113606;1233;21967;-83
2023/12/11 14:18:42;;;;;;;25.10;15.80;;;;;;;8.37;100.00;98803.63;113526;1233;21914;-83
2023/12/11 14:21:23;;;;;;;30.30;15.30;;;;;;;8.36;100.00;98802.60;113735;1233;23028;-83
2023/12/11 14:23:56;;;;;;;23.60;14.70;;;;;;;8.33;100.00;98802.40;113745;1233;21942;-82
2023/12/11 14:26:24;;;;;;;17.30;12.50;;;;;;;8.31;100.00;98801.66;113662;1233;22263;-82